sensor_id;sensor_type;location;lat;lon;timestamp;P1;durP1;ratioP1;P2;durP2;ratioP2
38591;SDS011;24356;48.460;11.450;2023-04-08T00:00:02;8.30;;;5.30;;
38591;SDS011;24356;48.460;11.450;2023-04-08T00:02:30;9.52;;;5.15;;
38591;SDS011;24356;48.460;11.450;2023-04-08T00:04:55;11.70;;;5.55;;
38591;SDS011;24356;48.460;11.450;2023-04-08T00:07:21;11.48;;;5.32;;
38591;SDS011;24356;48.460;11.450;2023-04-08T00:09:48;16.58;;;6.10;;
38591;SDS011;24356;48.460;11.450;2023-04-08T00:12:13;8.38;;;5.55;;
38591;SDS011;24356;48.460;11.450;2023-04-08T00:14:39;10.50;;;5.88;;
38591;SDS011;24356;48.460;11.450;2023-04-08T00:17:05;9.25;;;6.00;;
38591;SDS011;24356;48.460;11.450;2023-04-08T00:19:32;9.85;;;5.90;;
38591;SDS011;24356;48.460;11.450;2023-04-08T00:21:58;11.75;;;6.15;;
38591;SDS011;24356;48.460;11.450;2023-04-08T00:24:24;9.55;;;5.88;;
38591;SDS011;24356;48.460;11.450;2023-04-08T00:26:50;10.05;;;6.22;;
38591;SDS011;24356;48.460;11.450;2023-04-08T00:29:16;10.38;;;5.82;;
38591;SDS011;24356;48.460;11.450;2023-04-08T00:31:43;10.30;;;5.82;;
38591;SDS011;24356;48.460;11.450;2023-04-08T00:34:08;9.90;;;6.38;;
38591;SDS011;24356;48.460;11.450;2023-04-08T00:36:34;11.52;;;6.47;;
38591;SDS011;24356;48.460;11.450;2023-04-08T00:39:00;10.95;;;6.28;;
38591;SDS011;24356;48.460;11.450;2023-04-08T00:41:26;11.13;;;6.72;;
38591;SDS011;24356;48.460;11.450;2023-04-08T00:43:53;11.40;;;6.30;;
38591;SDS011;24356;48.460;11.450;2023-04-08T00:46:21;14.35;;;7.50;;
38591;SDS011;24356;48.460;11.450;2023-04-08T00:48:47;11.43;;;6.57;;
38591;SDS011;24356;48.460;11.450;2023-04-08T00:51:12;10.55;;;6.70;;
38591;SDS011;24356;48.460;11.450;2023-04-08T00:53:38;12.40;;;7.10;;
38591;SDS011;24356;48.460;11.450;2023-04-08T00:56:04;13.88;;;7.00;;
38591;SDS011;24356;48.460;11.450;2023-04-08T00:58:30;9.98;;;6.65;;
38591;SDS011;24356;48.460;11.450;2023-04-08T01:01:06;10.88;;;7.40;;
38591;SDS011;24356;48.460;11.450;2023-04-08T01:06:48;11.65;;;6.68;;
38591;SDS011;24356;48.460;11.450;2023-04-08T01:09:18;16.10;;;6.80;;
38591;SDS011;24356;48.460;11.450;2023-04-08T01:11:48;13.90;;;7.03;;
38591;SDS011;24356;48.460;11.450;2023-04-08T01:14:16;14.18;;;7.25;;
38591;SDS011;24356;48.460;11.450;2023-04-08T01:16:49;14.90;;;8.48;;
38591;SDS011;24356;48.460;11.450;2023-04-08T01:19:17;15.75;;;8.48;;
38591;SDS011;24356;48.460;11.450;2023-04-08T01:21:50;11.52;;;7.18;;
38591;SDS011;24356;48.460;11.450;2023-04-08T01:24:22;14.25;;;7.90;;
38591;SDS011;24356;48.460;11.450;2023-04-08T01:26:54;14.25;;;8.20;;
38591;SDS011;24356;48.460;11.450;2023-04-08T01:29:21;12.18;;;8.10;;
38591;SDS011;24356;48.460;11.450;2023-04-08T01:31:48;11.23;;;7.72;;
38591;SDS011;24356;48.460;11.450;2023-04-08T01:34:15;14.68;;;8.25;;
38591;SDS011;24356;48.460;11.450;2023-04-08T01:36:43;19.60;;;9.93;;
38591;SDS011;24356;48.460;11.450;2023-04-08T01:39:10;13.38;;;8.32;;
38591;SDS011;24356;48.460;11.450;2023-04-08T01:41:36;14.10;;;7.95;;
38591;SDS011;24356;48.460;11.450;2023-04-08T01:44:02;13.60;;;8.07;;
38591;SDS011;24356;48.460;11.450;2023-04-08T01:46:28;16.20;;;8.60;;
38591;SDS011;24356;48.460;11.450;2023-04-08T01:48:56;18.92;;;9.82;;
38591;SDS011;24356;48.460;11.450;2023-04-08T01:51:23;14.10;;;8.02;;
38591;SDS011;24356;48.460;11.450;2023-04-08T01:53:51;15.02;;;8.80;;
38591;SDS011;24356;48.460;11.450;2023-04-08T01:56:16;15.85;;;9.43;;
38591;SDS011;24356;48.460;11.450;2023-04-08T01:58:47;14.70;;;8.48;;
38591;SDS011;24356;48.460;11.450;2023-04-08T02:01:18;14.85;;;8.90;;
38591;SDS011;24356;48.460;11.450;2023-04-08T02:03:46;12.65;;;7.55;;
38591;SDS011;24356;48.460;11.450;2023-04-08T02:06:16;14.68;;;8.20;;
38591;SDS011;24356;48.460;11.450;2023-04-08T02:08:41;11.93;;;7.97;;
38591;SDS011;24356;48.460;11.450;2023-04-08T02:11:07;16.13;;;8.48;;
38591;SDS011;24356;48.460;11.450;2023-04-08T02:13:32;13.88;;;8.18;;
38591;SDS011;24356;48.460;11.450;2023-04-08T02:18:42;14.60;;;7.63;;
38591;SDS011;24356;48.460;11.450;2023-04-08T02:21:14;12.68;;;7.78;;
38591;SDS011;24356;48.460;11.450;2023-04-08T02:23:43;15.63;;;8.85;;
38591;SDS011;24356;48.460;11.450;2023-04-08T02:26:13;13.98;;;9.00;;
38591;SDS011;24356;48.460;11.450;2023-04-08T02:28:40;20.75;;;10.82;;
38591;SDS011;24356;48.460;11.450;2023-04-08T02:31:10;17.35;;;9.60;;
38591;SDS011;24356;48.460;11.450;2023-04-08T02:33:37;19.15;;;11.07;;
38591;SDS011;24356;48.460;11.450;2023-04-08T02:36:04;29.33;;;16.35;;
38591;SDS011;24356;48.460;11.450;2023-04-08T02:38:30;40.50;;;19.27;;
38591;SDS011;24356;48.460;11.450;2023-04-08T02:40:56;40.88;;;20.67;;
38591;SDS011;24356;48.460;11.450;2023-04-08T02:43:22;38.40;;;20.05;;
38591;SDS011;24356;48.460;11.450;2023-04-08T02:45:59;47.97;;;22.38;;
38591;SDS011;24356;48.460;11.450;2023-04-08T02:48:27;53.72;;;23.38;;
38591;SDS011;24356;48.460;11.450;2023-04-08T02:50:53;50.33;;;24.48;;
38591;SDS011;24356;48.460;11.450;2023-04-08T02:53:19;52.85;;;23.58;;
38591;SDS011;24356;48.460;11.450;2023-04-08T02:55:44;49.60;;;24.45;;
38591;SDS011;24356;48.460;11.450;2023-04-08T02:58:10;54.85;;;22.85;;
38591;SDS011;24356;48.460;11.450;2023-04-08T03:00:35;43.55;;;21.20;;
38591;SDS011;24356;48.460;11.450;2023-04-08T03:03:04;37.70;;;19.77;;
38591;SDS011;24356;48.460;11.450;2023-04-08T03:05:33;35.72;;;19.48;;
38591;SDS011;24356;48.460;11.450;2023-04-08T03:07:59;39.20;;;20.65;;
38591;SDS011;24356;48.460;11.450;2023-04-08T03:10:25;33.83;;;17.50;;
38591;SDS011;24356;48.460;11.450;2023-04-08T03:12:50;28.85;;;15.50;;
38591;SDS011;24356;48.460;11.450;2023-04-08T03:15:16;31.35;;;16.08;;
38591;SDS011;24356;48.460;11.450;2023-04-08T03:17:42;35.50;;;18.27;;
38591;SDS011;24356;48.460;11.450;2023-04-08T03:20:08;40.72;;;20.65;;
38591;SDS011;24356;48.460;11.450;2023-04-08T03:22:34;46.20;;;21.27;;
38591;SDS011;24356;48.460;11.450;2023-04-08T03:25:01;35.67;;;19.25;;
38591;SDS011;24356;48.460;11.450;2023-04-08T03:27:26;38.85;;;20.10;;
38591;SDS011;24356;48.460;11.450;2023-04-08T03:29:52;40.20;;;21.23;;
38591;SDS011;24356;48.460;11.450;2023-04-08T03:32:18;45.60;;;23.10;;
38591;SDS011;24356;48.460;11.450;2023-04-08T03:34:44;37.70;;;20.45;;
38591;SDS011;24356;48.460;11.450;2023-04-08T03:37:09;42.90;;;20.40;;
38591;SDS011;24356;48.460;11.450;2023-04-08T03:39:35;41.95;;;20.88;;
38591;SDS011;24356;48.460;11.450;2023-04-08T03:42:01;43.58;;;21.95;;
38591;SDS011;24356;48.460;11.450;2023-04-08T03:44:27;46.38;;;21.83;;
38591;SDS011;24356;48.460;11.450;2023-04-08T03:46:53;40.55;;;20.45;;
38591;SDS011;24356;48.460;11.450;2023-04-08T03:49:18;39.03;;;19.83;;
38591;SDS011;24356;48.460;11.450;2023-04-08T03:51:44;43.10;;;21.35;;
38591;SDS011;24356;48.460;11.450;2023-04-08T03:54:10;42.83;;;21.98;;
38591;SDS011;24356;48.460;11.450;2023-04-08T03:56:35;48.33;;;22.67;;
38591;SDS011;24356;48.460;11.450;2023-04-08T03:59:01;43.35;;;21.00;;
38591;SDS011;24356;48.460;11.450;2023-04-08T04:01:27;44.35;;;22.67;;
38591;SDS011;24356;48.460;11.450;2023-04-08T04:03:53;24.13;;;13.30;;
38591;SDS011;24356;48.460;11.450;2023-04-08T04:06:19;38.20;;;19.13;;
38591;SDS011;24356;48.460;11.450;2023-04-08T04:08:45;40.65;;;20.85;;
38591;SDS011;24356;48.460;11.450;2023-04-08T04:11:10;49.05;;;22.88;;
38591;SDS011;24356;48.460;11.450;2023-04-08T04:13:36;50.20;;;23.80;;
38591;SDS011;24356;48.460;11.450;2023-04-08T04:16:01;44.13;;;20.50;;
38591;SDS011;24356;48.460;11.450;2023-04-08T04:18:29;48.80;;;23.23;;
38591;SDS011;24356;48.460;11.450;2023-04-08T04:20:54;46.55;;;23.23;;
38591;SDS011;24356;48.460;11.450;2023-04-08T04:23:20;49.17;;;23.02;;
38591;SDS011;24356;48.460;11.450;2023-04-08T04:25:46;33.92;;;17.30;;
38591;SDS011;24356;48.460;11.450;2023-04-08T04:28:12;47.72;;;23.17;;
38591;SDS011;24356;48.460;11.450;2023-04-08T04:30:38;48.65;;;21.60;;
38591;SDS011;24356;48.460;11.450;2023-04-08T04:33:04;53.53;;;24.75;;
38591;SDS011;24356;48.460;11.450;2023-04-08T04:35:30;55.38;;;26.35;;
38591;SDS011;24356;48.460;11.450;2023-04-08T04:37:56;47.25;;;22.15;;
38591;SDS011;24356;48.460;11.450;2023-04-08T04:40:21;40.85;;;20.88;;
38591;SDS011;24356;48.460;11.450;2023-04-08T04:42:47;49.75;;;23.23;;
38591;SDS011;24356;48.460;11.450;2023-04-08T04:45:12;39.92;;;18.83;;
38591;SDS011;24356;48.460;11.450;2023-04-08T04:47:38;26.17;;;13.70;;
38591;SDS011;24356;48.460;11.450;2023-04-08T04:50:04;37.00;;;18.58;;
38591;SDS011;24356;48.460;11.450;2023-04-08T04:52:30;28.88;;;15.43;;
38591;SDS011;24356;48.460;11.450;2023-04-08T04:54:56;37.70;;;20.60;;
38591;SDS011;24356;48.460;11.450;2023-04-08T04:57:22;27.48;;;15.30;;
38591;SDS011;24356;48.460;11.450;2023-04-08T04:59:49;32.22;;;15.63;;
38591;SDS011;24356;48.460;11.450;2023-04-08T05:02:14;39.45;;;19.95;;
38591;SDS011;24356;48.460;11.450;2023-04-08T05:04:40;50.83;;;24.85;;
38591;SDS011;24356;48.460;11.450;2023-04-08T05:07:06;55.30;;;26.10;;
38591;SDS011;24356;48.460;11.450;2023-04-08T05:09:31;62.90;;;28.85;;
38591;SDS011;24356;48.460;11.450;2023-04-08T05:11:57;61.75;;;28.52;;
38591;SDS011;24356;48.460;11.450;2023-04-08T05:14:22;56.45;;;28.23;;
38591;SDS011;24356;48.460;11.450;2023-04-08T05:16:48;51.17;;;25.42;;
38591;SDS011;24356;48.460;11.450;2023-04-08T05:19:14;47.58;;;22.75;;
38591;SDS011;24356;48.460;11.450;2023-04-08T05:21:40;43.05;;;22.27;;
38591;SDS011;24356;48.460;11.450;2023-04-08T05:24:05;43.67;;;22.05;;
38591;SDS011;24356;48.460;11.450;2023-04-08T05:26:31;50.13;;;25.05;;
38591;SDS011;24356;48.460;11.450;2023-04-08T05:28:57;59.15;;;26.55;;
38591;SDS011;24356;48.460;11.450;2023-04-08T05:31:22;54.38;;;24.88;;
38591;SDS011;24356;48.460;11.450;2023-04-08T05:33:48;54.75;;;26.73;;
38591;SDS011;24356;48.460;11.450;2023-04-08T05:36:13;56.10;;;26.85;;
38591;SDS011;24356;48.460;11.450;2023-04-08T05:38:39;59.30;;;26.63;;
38591;SDS011;24356;48.460;11.450;2023-04-08T05:41:07;54.13;;;27.02;;
38591;SDS011;24356;48.460;11.450;2023-04-08T05:43:32;54.63;;;26.42;;
38591;SDS011;24356;48.460;11.450;2023-04-08T05:45:58;56.88;;;26.75;;
38591;SDS011;24356;48.460;11.450;2023-04-08T05:48:24;53.15;;;26.63;;
38591;SDS011;24356;48.460;11.450;2023-04-08T05:50:50;58.70;;;27.35;;
38591;SDS011;24356;48.460;11.450;2023-04-08T05:53:15;54.05;;;26.95;;
38591;SDS011;24356;48.460;11.450;2023-04-08T05:55:41;50.78;;;26.55;;
38591;SDS011;24356;48.460;11.450;2023-04-08T05:58:08;41.40;;;21.77;;
38591;SDS011;24356;48.460;11.450;2023-04-08T06:00:35;39.47;;;21.08;;
38591;SDS011;24356;48.460;11.450;2023-04-08T06:03:00;40.10;;;20.83;;
38591;SDS011;24356;48.460;11.450;2023-04-08T06:05:26;26.90;;;15.40;;
38591;SDS011;24356;48.460;11.450;2023-04-08T06:07:51;25.35;;;15.00;;
38591;SDS011;24356;48.460;11.450;2023-04-08T06:10:17;36.35;;;18.92;;
38591;SDS011;24356;48.460;11.450;2023-04-08T06:12:42;29.65;;;16.25;;
38591;SDS011;24356;48.460;11.450;2023-04-08T06:15:08;36.83;;;20.00;;
38591;SDS011;24356;48.460;11.450;2023-04-08T06:17:37;41.95;;;22.63;;
38591;SDS011;24356;48.460;11.450;2023-04-08T06:20:05;37.90;;;20.40;;
38591;SDS011;24356;48.460;11.450;2023-04-08T06:22:31;34.92;;;18.80;;
38591;SDS011;24356;48.460;11.450;2023-04-08T06:24:56;26.48;;;14.90;;
38591;SDS011;24356;48.460;11.450;2023-04-08T06:27:22;33.70;;;18.02;;
38591;SDS011;24356;48.460;11.450;2023-04-08T06:29:47;28.60;;;15.88;;
38591;SDS011;24356;48.460;11.450;2023-04-08T06:32:13;37.65;;;19.58;;
38591;SDS011;24356;48.460;11.450;2023-04-08T06:34:39;35.30;;;19.15;;
38591;SDS011;24356;48.460;11.450;2023-04-08T06:37:06;29.48;;;17.08;;
38591;SDS011;24356;48.460;11.450;2023-04-08T06:39:32;23.23;;;13.40;;
38591;SDS011;24356;48.460;11.450;2023-04-08T06:41:58;31.45;;;17.35;;
38591;SDS011;24356;48.460;11.450;2023-04-08T06:44:23;36.28;;;19.33;;
38591;SDS011;24356;48.460;11.450;2023-04-08T06:46:49;23.73;;;14.05;;
38591;SDS011;24356;48.460;11.450;2023-04-08T06:49:15;31.27;;;16.80;;
38591;SDS011;24356;48.460;11.450;2023-04-08T06:51:40;33.03;;;17.27;;
38591;SDS011;24356;48.460;11.450;2023-04-08T06:54:06;25.50;;;14.75;;
38591;SDS011;24356;48.460;11.450;2023-04-08T06:56:34;36.75;;;20.38;;
38591;SDS011;24356;48.460;11.450;2023-04-08T06:59:00;36.35;;;17.75;;
38591;SDS011;24356;48.460;11.450;2023-04-08T07:01:25;31.80;;;17.95;;
38591;SDS011;24356;48.460;11.450;2023-04-08T07:03:51;29.08;;;15.48;;
38591;SDS011;24356;48.460;11.450;2023-04-08T07:06:16;33.35;;;17.85;;
38591;SDS011;24356;48.460;11.450;2023-04-08T07:08:42;26.27;;;14.80;;
38591;SDS011;24356;48.460;11.450;2023-04-08T07:11:07;28.05;;;15.85;;
38591;SDS011;24356;48.460;11.450;2023-04-08T07:13:33;28.48;;;15.75;;
38591;SDS011;24356;48.460;11.450;2023-04-08T07:15:59;23.38;;;13.75;;
38591;SDS011;24356;48.460;11.450;2023-04-08T07:18:25;26.75;;;14.20;;
38591;SDS011;24356;48.460;11.450;2023-04-08T07:20:51;25.63;;;14.48;;
38591;SDS011;24356;48.460;11.450;2023-04-08T07:23:21;26.08;;;16.40;;
38591;SDS011;24356;48.460;11.450;2023-04-08T07:25:47;25.98;;;14.38;;
38591;SDS011;24356;48.460;11.450;2023-04-08T07:28:13;24.38;;;14.00;;
38591;SDS011;24356;48.460;11.450;2023-04-08T07:30:38;27.00;;;14.52;;
38591;SDS011;24356;48.460;11.450;2023-04-08T07:33:05;28.92;;;15.88;;
38591;SDS011;24356;48.460;11.450;2023-04-08T07:35:32;33.80;;;17.48;;
38591;SDS011;24356;48.460;11.450;2023-04-08T07:37:59;26.80;;;14.13;;
38591;SDS011;24356;48.460;11.450;2023-04-08T07:40:24;32.33;;;16.48;;
38591;SDS011;24356;48.460;11.450;2023-04-08T07:42:50;33.05;;;16.58;;
38591;SDS011;24356;48.460;11.450;2023-04-08T07:45:16;33.53;;;17.52;;
38591;SDS011;24356;48.460;11.450;2023-04-08T07:47:42;28.13;;;14.77;;
38591;SDS011;24356;48.460;11.450;2023-04-08T07:50:08;28.13;;;15.70;;
38591;SDS011;24356;48.460;11.450;2023-04-08T07:52:38;24.08;;;12.93;;
38591;SDS011;24356;48.460;11.450;2023-04-08T07:55:04;25.30;;;13.70;;
38591;SDS011;24356;48.460;11.450;2023-04-08T07:57:31;21.63;;;12.52;;
38591;SDS011;24356;48.460;11.450;2023-04-08T07:59:57;22.52;;;12.68;;
38591;SDS011;24356;48.460;11.450;2023-04-08T08:02:23;21.23;;;12.65;;
38591;SDS011;24356;48.460;11.450;2023-04-08T08:04:49;21.65;;;13.32;;
38591;SDS011;24356;48.460;11.450;2023-04-08T08:07:15;22.75;;;12.60;;
38591;SDS011;24356;48.460;11.450;2023-04-08T08:09:40;19.73;;;11.27;;
38591;SDS011;24356;48.460;11.450;2023-04-08T08:12:06;21.13;;;11.70;;
38591;SDS011;24356;48.460;11.450;2023-04-08T08:14:31;18.83;;;11.63;;
38591;SDS011;24356;48.460;11.450;2023-04-08T08:16:57;19.13;;;11.70;;
38591;SDS011;24356;48.460;11.450;2023-04-08T08:19:23;20.50;;;12.27;;
38591;SDS011;24356;48.460;11.450;2023-04-08T08:21:49;23.02;;;13.15;;
38591;SDS011;24356;48.460;11.450;2023-04-08T08:24:16;18.88;;;11.07;;
38591;SDS011;24356;48.460;11.450;2023-04-08T08:26:42;16.75;;;10.75;;
38591;SDS011;24356;48.460;11.450;2023-04-08T08:29:09;19.02;;;11.65;;
38591;SDS011;24356;48.460;11.450;2023-04-08T08:31:35;18.60;;;11.48;;
38591;SDS011;24356;48.460;11.450;2023-04-08T08:34:00;20.85;;;12.15;;
38591;SDS011;24356;48.460;11.450;2023-04-08T08:36:26;17.98;;;10.95;;
38591;SDS011;24356;48.460;11.450;2023-04-08T08:38:52;18.45;;;10.23;;
38591;SDS011;24356;48.460;11.450;2023-04-08T08:41:19;17.13;;;10.82;;
38591;SDS011;24356;48.460;11.450;2023-04-08T08:43:45;20.05;;;11.88;;
38591;SDS011;24356;48.460;11.450;2023-04-08T08:46:14;18.15;;;10.52;;
38591;SDS011;24356;48.460;11.450;2023-04-08T08:48:41;20.08;;;10.88;;
38591;SDS011;24356;48.460;11.450;2023-04-08T08:51:10;21.35;;;11.25;;
38591;SDS011;24356;48.460;11.450;2023-04-08T08:53:37;17.10;;;10.20;;
38591;SDS011;24356;48.460;11.450;2023-04-08T08:56:03;18.42;;;11.48;;
38591;SDS011;24356;48.460;11.450;2023-04-08T08:58:32;18.58;;;11.05;;
38591;SDS011;24356;48.460;11.450;2023-04-08T09:00:58;16.90;;;10.85;;
38591;SDS011;24356;48.460;11.450;2023-04-08T09:03:25;15.77;;;9.93;;
38591;SDS011;24356;48.460;11.450;2023-04-08T09:05:55;16.60;;;10.93;;
38591;SDS011;24356;48.460;11.450;2023-04-08T09:08:25;17.67;;;11.05;;
38591;SDS011;24356;48.460;11.450;2023-04-08T09:11:19;20.50;;;10.82;;
38591;SDS011;24356;48.460;11.450;2023-04-08T09:13:46;22.60;;;12.57;;
38591;SDS011;24356;48.460;11.450;2023-04-08T09:16:12;16.33;;;10.15;;
38591;SDS011;24356;48.460;11.450;2023-04-08T09:18:41;16.83;;;10.43;;
38591;SDS011;24356;48.460;11.450;2023-04-08T09:21:09;18.90;;;11.05;;
38591;SDS011;24356;48.460;11.450;2023-04-08T09:23:42;16.52;;;10.13;;
38591;SDS011;24356;48.460;11.450;2023-04-08T09:26:13;16.98;;;10.52;;
38591;SDS011;24356;48.460;11.450;2023-04-08T09:28:59;16.45;;;10.02;;
38591;SDS011;24356;48.460;11.450;2023-04-08T09:31:28;18.17;;;10.43;;
38591;SDS011;24356;48.460;11.450;2023-04-08T09:33:55;17.00;;;10.43;;
38591;SDS011;24356;48.460;11.450;2023-04-08T09:36:22;18.10;;;10.60;;
38591;SDS011;24356;48.460;11.450;2023-04-08T09:38:48;21.35;;;11.52;;
38591;SDS011;24356;48.460;11.450;2023-04-08T09:41:15;17.15;;;10.57;;
38591;SDS011;24356;48.460;11.450;2023-04-08T09:43:50;16.83;;;10.40;;
38591;SDS011;24356;48.460;11.450;2023-04-08T09:46:24;17.42;;;10.95;;
38591;SDS011;24356;48.460;11.450;2023-04-08T09:49:00;17.88;;;11.02;;
38591;SDS011;24356;48.460;11.450;2023-04-08T09:51:32;17.67;;;10.15;;
38591;SDS011;24356;48.460;11.450;2023-04-08T09:54:05;18.77;;;10.97;;
38591;SDS011;24356;48.460;11.450;2023-04-08T09:56:40;19.75;;;11.07;;
38591;SDS011;24356;48.460;11.450;2023-04-08T09:59:13;15.03;;;10.00;;
38591;SDS011;24356;48.460;11.450;2023-04-08T10:01:47;18.45;;;9.88;;
38591;SDS011;24356;48.460;11.450;2023-04-08T10:04:17;18.60;;;11.70;;
38591;SDS011;24356;48.460;11.450;2023-04-08T10:06:47;18.83;;;11.68;;
38591;SDS011;24356;48.460;11.450;2023-04-08T10:09:28;16.58;;;10.27;;
38591;SDS011;24356;48.460;11.450;2023-04-08T10:11:54;20.38;;;11.65;;
38591;SDS011;24356;48.460;11.450;2023-04-08T10:14:20;15.90;;;10.38;;
38591;SDS011;24356;48.460;11.450;2023-04-08T10:16:46;14.48;;;8.68;;
38591;SDS011;24356;48.460;11.450;2023-04-08T10:22:14;17.90;;;10.27;;
38591;SDS011;24356;48.460;11.450;2023-04-08T10:27:40;20.33;;;10.98;;
38591;SDS011;24356;48.460;11.450;2023-04-08T10:32:50;16.30;;;10.80;;
38591;SDS011;24356;48.460;11.450;2023-04-08T10:35:16;16.70;;;10.45;;
38591;SDS011;24356;48.460;11.450;2023-04-08T10:37:42;20.23;;;12.02;;
38591;SDS011;24356;48.460;11.450;2023-04-08T10:40:18;17.95;;;12.07;;
38591;SDS011;24356;48.460;11.450;2023-04-08T10:42:44;17.23;;;10.93;;
38591;SDS011;24356;48.460;11.450;2023-04-08T10:45:09;19.42;;;11.15;;
38591;SDS011;24356;48.460;11.450;2023-04-08T10:47:35;19.92;;;11.82;;
38591;SDS011;24356;48.460;11.450;2023-04-08T10:50:11;17.42;;;10.60;;
38591;SDS011;24356;48.460;11.450;2023-04-08T10:52:47;20.13;;;11.77;;
38591;SDS011;24356;48.460;11.450;2023-04-08T10:55:25;17.27;;;10.93;;
38591;SDS011;24356;48.460;11.450;2023-04-08T10:57:52;19.83;;;11.60;;
38591;SDS011;24356;48.460;11.450;2023-04-08T11:00:18;20.45;;;12.32;;
38591;SDS011;24356;48.460;11.450;2023-04-08T11:03:00;14.73;;;10.95;;
38591;SDS011;24356;48.460;11.450;2023-04-08T11:05:30;17.65;;;10.25;;
38591;SDS011;24356;48.460;11.450;2023-04-08T11:07:59;14.60;;;9.90;;
38591;SDS011;24356;48.460;11.450;2023-04-08T11:10:25;15.98;;;10.25;;
38591;SDS011;24356;48.460;11.450;2023-04-08T11:12:53;14.65;;;10.10;;
38591;SDS011;24356;48.460;11.450;2023-04-08T11:15:20;16.00;;;9.25;;
38591;SDS011;24356;48.460;11.450;2023-04-08T11:17:46;13.00;;;9.25;;
38591;SDS011;24356;48.460;11.450;2023-04-08T11:20:12;13.30;;;8.98;;
38591;SDS011;24356;48.460;11.450;2023-04-08T11:22:39;14.50;;;9.25;;
38591;SDS011;24356;48.460;11.450;2023-04-08T11:25:05;11.75;;;8.30;;
38591;SDS011;24356;48.460;11.450;2023-04-08T11:27:34;11.30;;;8.05;;
38591;SDS011;24356;48.460;11.450;2023-04-08T11:30:00;14.02;;;8.40;;
38591;SDS011;24356;48.460;11.450;2023-04-08T11:32:28;11.98;;;7.50;;
38591;SDS011;24356;48.460;11.450;2023-04-08T11:34:54;9.93;;;7.85;;
38591;SDS011;24356;48.460;11.450;2023-04-08T11:37:19;10.40;;;7.50;;
38591;SDS011;24356;48.460;11.450;2023-04-08T11:39:46;12.05;;;7.82;;
38591;SDS011;24356;48.460;11.450;2023-04-08T11:42:25;9.98;;;7.47;;
38591;SDS011;24356;48.460;11.450;2023-04-08T11:44:51;11.00;;;7.75;;
38591;SDS011;24356;48.460;11.450;2023-04-08T11:47:17;11.63;;;7.88;;
38591;SDS011;24356;48.460;11.450;2023-04-08T11:49:43;10.13;;;7.28;;
38591;SDS011;24356;48.460;11.450;2023-04-08T11:52:10;10.05;;;7.45;;
38591;SDS011;24356;48.460;11.450;2023-04-08T11:54:39;10.43;;;7.20;;
38591;SDS011;24356;48.460;11.450;2023-04-08T11:57:06;8.98;;;6.53;;
38591;SDS011;24356;48.460;11.450;2023-04-08T11:59:33;8.98;;;6.65;;
38591;SDS011;24356;48.460;11.450;2023-04-08T12:02:02;9.23;;;6.82;;
38591;SDS011;24356;48.460;11.450;2023-04-08T12:04:28;8.82;;;6.75;;
38591;SDS011;24356;48.460;11.450;2023-04-08T12:06:54;9.73;;;6.90;;
38591;SDS011;24356;48.460;11.450;2023-04-08T12:09:20;9.48;;;6.53;;
38591;SDS011;24356;48.460;11.450;2023-04-08T12:11:46;9.90;;;6.55;;
38591;SDS011;24356;48.460;11.450;2023-04-08T12:14:11;9.15;;;6.22;;
38591;SDS011;24356;48.460;11.450;2023-04-08T12:16:37;10.18;;;5.90;;
38591;SDS011;24356;48.460;11.450;2023-04-08T12:19:03;10.13;;;6.05;;
38591;SDS011;24356;48.460;11.450;2023-04-08T12:21:29;8.38;;;5.82;;
38591;SDS011;24356;48.460;11.450;2023-04-08T12:23:56;9.10;;;6.03;;
38591;SDS011;24356;48.460;11.450;2023-04-08T12:26:22;9.38;;;6.30;;
38591;SDS011;24356;48.460;11.450;2023-04-08T12:28:48;11.43;;;7.18;;
38591;SDS011;24356;48.460;11.450;2023-04-08T12:31:13;10.35;;;7.03;;
38591;SDS011;24356;48.460;11.450;2023-04-08T12:33:39;11.02;;;7.20;;
38591;SDS011;24356;48.460;11.450;2023-04-08T12:36:05;10.02;;;6.85;;
38591;SDS011;24356;48.460;11.450;2023-04-08T12:38:30;10.10;;;7.03;;
38591;SDS011;24356;48.460;11.450;2023-04-08T12:40:57;10.00;;;7.07;;
38591;SDS011;24356;48.460;11.450;2023-04-08T12:43:23;11.50;;;7.15;;
38591;SDS011;24356;48.460;11.450;2023-04-08T12:45:49;10.40;;;7.40;;
38591;SDS011;24356;48.460;11.450;2023-04-08T12:48:15;12.50;;;8.02;;
38591;SDS011;24356;48.460;11.450;2023-04-08T12:50:41;11.95;;;8.13;;
38591;SDS011;24356;48.460;11.450;2023-04-08T12:53:07;11.50;;;7.95;;
38591;SDS011;24356;48.460;11.450;2023-04-08T12:55:32;10.90;;;7.40;;
38591;SDS011;24356;48.460;11.450;2023-04-08T12:57:58;12.25;;;8.10;;
38591;SDS011;24356;48.460;11.450;2023-04-08T13:00:24;12.13;;;7.85;;
38591;SDS011;24356;48.460;11.450;2023-04-08T13:02:50;12.80;;;8.10;;
38591;SDS011;24356;48.460;11.450;2023-04-08T13:05:16;11.85;;;8.00;;
38591;SDS011;24356;48.460;11.450;2023-04-08T13:07:43;12.02;;;7.78;;
38591;SDS011;24356;48.460;11.450;2023-04-08T13:10:09;11.75;;;8.27;;
38591;SDS011;24356;48.460;11.450;2023-04-08T13:12:35;10.90;;;7.95;;
38591;SDS011;24356;48.460;11.450;2023-04-08T13:15:04;11.77;;;7.40;;
38591;SDS011;24356;48.460;11.450;2023-04-08T13:17:30;11.93;;;7.45;;
38591;SDS011;24356;48.460;11.450;2023-04-08T13:19:56;14.15;;;8.13;;
38591;SDS011;24356;48.460;11.450;2023-04-08T13:22:22;12.40;;;7.60;;
38591;SDS011;24356;48.460;11.450;2023-04-08T13:24:47;12.68;;;8.50;;
38591;SDS011;24356;48.460;11.450;2023-04-08T13:27:13;15.52;;;9.30;;
38591;SDS011;24356;48.460;11.450;2023-04-08T13:29:38;14.15;;;8.98;;
38591;SDS011;24356;48.460;11.450;2023-04-08T13:32:04;12.90;;;8.48;;
38591;SDS011;24356;48.460;11.450;2023-04-08T13:34:30;12.55;;;8.35;;
38591;SDS011;24356;48.460;11.450;2023-04-08T13:36:55;18.38;;;9.85;;
38591;SDS011;24356;48.460;11.450;2023-04-08T13:39:21;14.20;;;9.23;;
38591;SDS011;24356;48.460;11.450;2023-04-08T13:41:47;12.07;;;8.65;;
38591;SDS011;24356;48.460;11.450;2023-04-08T13:44:13;14.18;;;9.02;;
38591;SDS011;24356;48.460;11.450;2023-04-08T13:46:39;13.88;;;8.68;;
38591;SDS011;24356;48.460;11.450;2023-04-08T13:49:05;16.95;;;10.32;;
38591;SDS011;24356;48.460;11.450;2023-04-08T13:51:31;13.75;;;9.10;;
38591;SDS011;24356;48.460;11.450;2023-04-08T13:53:56;17.90;;;10.60;;
38591;SDS011;24356;48.460;11.450;2023-04-08T13:56:23;15.73;;;9.35;;
38591;SDS011;24356;48.460;11.450;2023-04-08T13:58:49;18.05;;;10.18;;
38591;SDS011;24356;48.460;11.450;2023-04-08T14:01:15;16.02;;;10.15;;
38591;SDS011;24356;48.460;11.450;2023-04-08T14:03:41;16.60;;;10.23;;
38591;SDS011;24356;48.460;11.450;2023-04-08T14:06:07;16.13;;;10.15;;
38591;SDS011;24356;48.460;11.450;2023-04-08T14:08:33;16.70;;;10.30;;
38591;SDS011;24356;48.460;11.450;2023-04-08T14:10:58;16.58;;;10.13;;
38591;SDS011;24356;48.460;11.450;2023-04-08T14:13:24;16.05;;;9.27;;
38591;SDS011;24356;48.460;11.450;2023-04-08T14:15:49;16.95;;;10.18;;
38591;SDS011;24356;48.460;11.450;2023-04-08T14:18:17;16.23;;;9.85;;
38591;SDS011;24356;48.460;11.450;2023-04-08T14:20:43;15.35;;;9.40;;
38591;SDS011;24356;48.460;11.450;2023-04-08T14:23:08;14.02;;;9.10;;
38591;SDS011;24356;48.460;11.450;2023-04-08T14:25:35;17.42;;;10.18;;